Startpagina
METAR-TAF:

METAR-TAF

Vliegvelden :

Port Moresby, Papoea-Nieuw-Guinea

Luchthaven Port Moresby

breedte: 09-26S, lengte: 147-13E, hoogte: 38 m

METAR: ontbreekt

Tijdstip: 12:23 (02:23 UTC)

Verwachting

Dit bericht is 3 uur en het 53 minuten geleden gemaakt, om 22:30 UTC
Verwachting geldig van 27 om 00 UTC tot 27 om 24 UTC
Wind 10 kt uit het zuidoosten
Zicht 10 km of meer
Verspreide wolken op 1800 ft
Gebroken wolken op 4000 ft
Van 27 om 0400 UTC
Wind 12 kt uit het zuidzuidoosten
Zicht 10 km of meer
Verspreide wolken op 1800 ft

TAF: AYPY 262230Z 2700/2724 14010KT 9999 SCT018 BKN040 FM270400 16012KT 9999 SCT018

Waarnemingen en weersverwachtingen van meer dan 4000 vliegvelden (METAR en TAF).

De beschikbare stations zijn de gele en rode punten op de kaart.

Ga met uw muis naar het station om de naam te zien.

Klik dan om waarnemingen en weersverwachtingen te zien.

kaart wijzigen: klik op de groene knoppen met een zwart kruis om in te zoomen, op de groene knop met een streepje om uit te zoomen of op de groene pijlen voor aangrenzende kaarten.


METAR-TAF: